Observation data for Goodlett on 11/08/2019      Previous  Date       Current Mesonet Observations  Soil Data  Daily Summary Page  Observations in Plain Language
KGDS 080600Z 35005KT 03/M02 A3049 RMK A01 T00311022  RH  069%=      5-min Rain = 0
KGDS 080605Z 36005KT 03/M02 A3048 RMK A01 T00311020  RH  070%=      5-min Rain = 0
KGDS 080610Z 00006KT 03/M02 A3048 RMK A01 T00311022  RH  069%=      5-min Rain = 0
KGDS 080615Z 00005KT 03/M02 A3048 RMK A01 T00311021  RH  069%=      5-min Rain = 0
KGDS 080620Z 36005KT 03/M02 A3048 RMK A01 T00311022  RH  069%=      5-min Rain = 0
KGDS 080625Z 36006KT 03/M02 A3047 RMK A01 T00311022  RH  069%=      5-min Rain = 0
KGDS 080630Z 36006KT 03/M03 A3047 RMK A01 T00311025  RH  067%=      5-min Rain = 0
KGDS 080635Z 36006KT 03/M03 A3047 RMK A01 T00311026  RH  067%=      5-min Rain = 0
KGDS 080640Z 36006KT 03/M03 A3047 RMK A01 T00311027  RH  066%=      5-min Rain = 0
KGDS 080645Z 36006KT 03/M03 A3047 RMK A01 T00311029  RH  065%=      5-min Rain = 0
KGDS 080650Z 36005KT 03/M03 A3047 RMK A01 T00301029  RH  065%=      5-min Rain = 0
KGDS 080655Z 36006KT 03/M03 A3047 RMK A01 T00301032  RH  064%=      5-min Rain = 0
KGDS 080700Z 35006KT 03/M04 A3047 RMK A01 T00301035  RH  063%=      5-min Rain = 0
KGDS 080705Z 35006KT 03/M03 A3047 RMK A01 T00301032  RH  064%=      5-min Rain = 0
KGDS 080710Z 36006KT 03/M03 A3047 RMK A01 T00301033  RH  064%=      5-min Rain = 0
KGDS 080715Z 36005KT 03/M03 A3047 RMK A01 T00291032  RH  064%=      5-min Rain = 0
KGDS 080720Z 35005KT 03/M03 A3047 RMK A01 T00291033  RH  064%=      5-min Rain = 0
KGDS 080725Z 35005KT 03/M03 A3047 RMK A01 T00291034  RH  064%=      5-min Rain = 0
KGDS 080730Z 35005KT 03/M04 A3047 RMK A01 T00281038  RH  062%=      5-min Rain = 0
KGDS 080735Z 35005KT 03/M04 A3047 RMK A01 T00271037  RH  063%=      5-min Rain = 0
KGDS 080740Z 35004KT 03/M04 A3047 RMK A01 T00261037  RH  063%=      5-min Rain = 0
KGDS 080745Z 35005KT 03/M04 A3047 RMK A01 T00251037  RH  064%=      5-min Rain = 0
KGDS 080750Z 36004KT 03/M04 A3047 RMK A01 T00251038  RH  063%=      5-min Rain = 0
KGDS 080755Z 00004KT 03/M04 A3047 RMK A01 T00261039  RH  063%=      5-min Rain = 0
KGDS 080800Z 00004KT 03/M04 A3047 RMK A01 T00251036  RH  064%=      5-min Rain = 0
KGDS 080805Z 01004KT 03/M04 A3046 RMK A01 T00251036  RH  064%=      5-min Rain = 0
KGDS 080810Z 00004KT 03/M04 A3046 RMK A01 T00251035  RH  065%=      5-min Rain = 0
KGDS 080815Z 00004KT 03/M03 A3046 RMK A01 T00251034  RH  065%=      5-min Rain = 0
KGDS 080820Z 36004KT 03/M03 A3046 RMK A01 T00261034  RH  065%=      5-min Rain = 0
KGDS 080825Z 00004KT 03/M04 A3045 RMK A01 T00261035  RH  064%=      5-min Rain = 0
KGDS 080830Z 01005KT 03/M04 A3045 RMK A01 T00261035  RH  064%=      5-min Rain = 0
KGDS 080835Z 01005KT 03/M04 A3045 RMK A01 T00271038  RH  063%=      5-min Rain = 0
KGDS 080840Z 01004KT 03/M04 A3045 RMK A01 T00271037  RH  063%=      5-min Rain = 0
KGDS 080845Z 01003KT 03/M04 A3045 RMK A01 T00271039  RH  062%=      5-min Rain = 0
KGDS 080850Z 02003KT 03/M04 A3045 RMK A01 T00271038  RH  062%=      5-min Rain = 0
KGDS 080855Z 01004KT 03/M04 A3045 RMK A01 T00271039  RH  062%=      5-min Rain = 0
KGDS 080900Z 01004KT 03/M04 A3044 RMK A01 T00281038  RH  062%=      5-min Rain = 0
KGDS 080905Z 00004KT 03/M04 A3044 RMK A01 T00281038  RH  062%=      5-min Rain = 0
KGDS 080910Z 36004KT 03/M04 A3044 RMK A01 T00281037  RH  062%=      5-min Rain = 0
KGDS 080915Z 35004KT 03/M04 A3044 RMK A01 T00281041  RH  061%=      5-min Rain = 0
KGDS 080920Z 35004KT 03/M04 A3044 RMK A01 T00281043  RH  060%=      5-min Rain = 0
KGDS 080925Z 35003KT 03/M04 A3044 RMK A01 T00281042  RH  060%=      5-min Rain = 0
KGDS 080930Z 35003KT 03/M04 A3045 RMK A01 T00281044  RH  059%=      5-min Rain = 0
KGDS 080935Z 33003KT 03/M04 A3045 RMK A01 T00291039  RH  061%=      5-min Rain = 0
KGDS 080940Z 34004KT 03/M04 A3045 RMK A01 T00281037  RH  062%=      5-min Rain = 0
KGDS 080945Z 35004KT 03/M04 A3044 RMK A01 T00281040  RH  061%=      5-min Rain = 0
KGDS 080950Z 35004KT 03/M04 A3045 RMK A01 T00281040  RH  061%=      5-min Rain = 0
KGDS 080955Z 00005KT 03/M04 A3044 RMK A01 T00281043  RH  060%=      5-min Rain = 0
KGDS 081000Z 34005KT 03/M04 A3045 RMK A01 T00291042  RH  060%=      5-min Rain = 0
KGDS 081005Z 34005KT 03/M04 A3045 RMK A01 T00281042  RH  060%=      5-min Rain = 0
KGDS 081010Z 35005KT 03/M04 A3044 RMK A01 T00281044  RH  059%=      5-min Rain = 0
KGDS 081015Z 35006KT 03/M05 A3044 RMK A01 T00281046  RH  058%=      5-min Rain = 0
KGDS 081020Z 35006KT 03/M05 A3044 RMK A01 T00281047  RH  058%=      5-min Rain = 0
KGDS 081025Z 35006KT 03/M05 A3044 RMK A01 T00281048  RH  057%=      5-min Rain = 0
KGDS 081030Z 35005KT 03/M05 A3044 RMK A01 T00281046  RH  058%=      5-min Rain = 0
KGDS 081035Z 01005KT 03/M05 A3044 RMK A01 T00281048  RH  058%=      5-min Rain = 0
KGDS 081040Z 36005KT 03/M05 A3044 RMK A01 T00281048  RH  058%=      5-min Rain = 0
KGDS 081045Z 00004KT 03/M05 A3044 RMK A01 T00291046  RH  058%=      5-min Rain = 0
KGDS 081050Z 00004KT 03/M05 A3044 RMK A01 T00291048  RH  057%=      5-min Rain = 0
KGDS 081055Z 35004KT 03/M05 A3044 RMK A01 T00291046  RH  058%=      5-min Rain = 0
KGDS 081100Z 33004KT 03/M05 A3045 RMK A01 T00291046  RH  058%=      5-min Rain = 0
KGDS 081105Z 34003KT 03/M04 A3045 RMK A01 T00291041  RH  060%=      5-min Rain = 0
KGDS 081110Z 35003KT 03/M04 A3045 RMK A01 T00291044  RH  059%=      5-min Rain = 0
KGDS 081115Z 34002KT 03/M04 A3045 RMK A01 T00301041  RH  060%=      5-min Rain = 0
KGDS 081120Z 34002KT 03/M05 A3045 RMK A01 T00301046  RH  058%=      5-min Rain = 0
KGDS 081125Z 34003KT 03/M05 A3045 RMK A01 T00301046  RH  058%=      5-min Rain = 0
KGDS 081130Z 35003KT 03/M04 A3045 RMK A01 T00301044  RH  059%=      5-min Rain = 0
KGDS 081135Z 35003KT 03/M05 A3044 RMK A01 T00301046  RH  057%=      5-min Rain = 0
KGDS 081140Z 35003KT 03/M05 A3044 RMK A01 T00301047  RH  057%=      5-min Rain = 0
KGDS 081145Z 35003KT 03/M05 A3044 RMK A01 T00301049  RH  056%=      5-min Rain = 0
KGDS 081150Z 34003KT 03/M05 A3044 RMK A01 T00301051  RH  055%=      5-min Rain = 0
KGDS 081155Z 35003KT 03/M05 A3044 RMK A01 T00301052  RH  055%=      5-min Rain = 0
KGDS 081200Z 35003KT 03/M05 A3044 RMK A01 T00311049  RH  056%=      5-min Rain = 0
KGDS 081205Z 35004KT 03/M05 A3044 RMK A01 T00311052  RH  055%=      5-min Rain = 0
KGDS 081210Z 35004KT 03/M05 A3044 RMK A01 T00311051  RH  055%=      5-min Rain = 0
KGDS 081215Z 35003KT 03/M05 A3044 RMK A01 T00311050  RH  056%=      5-min Rain = 0
KGDS 081220Z 01003KT 03/M05 A3043 RMK A01 T00301048  RH  057%=      5-min Rain = 0
KGDS 081225Z 00003KT 03/M05 A3044 RMK A01 T00291050  RH  056%=      5-min Rain = 0
KGDS 081230Z 00002KT 03/M05 A3043 RMK A01 T00281048  RH  058%=      5-min Rain = 0
KGDS 081235Z 36002KT 03/M04 A3044 RMK A01 T00271044  RH  060%=      5-min Rain = 0
KGDS 081240Z 01001KT 03/M04 A3044 RMK A01 T00261041  RH  061%=      5-min Rain = 0
KGDS 081245Z 02002KT 03/M04 A3043 RMK A01 T00271042  RH  061%=      5-min Rain = 0
KGDS 081250Z 02003KT 03/M04 A3044 RMK A01 T00281039  RH  062%=      5-min Rain = 0
KGDS 081255Z 03002KT 03/M04 A3043 RMK A01 T00281039  RH  061%=      5-min Rain = 0
KGDS 081300Z 04002KT 03/M04 A3043 RMK A01 T00291041  RH  060%=      5-min Rain = 0
KGDS 081305Z 04002KT 03/M04 A3043 RMK A01 T00291043  RH  059%=      5-min Rain = 0
KGDS 081310Z 03002KT 03/M04 A3043 RMK A01 T00291044  RH  059%=      5-min Rain = 0
KGDS 081315Z 02002KT 03/M05 A3044 RMK A01 T00291046  RH  058%=      5-min Rain = 0
KGDS 081320Z 01002KT 03/M04 A3044 RMK A01 T00301042  RH  060%=      5-min Rain = 0
KGDS 081325Z 02003KT 03/M04 A3044 RMK A01 T00301043  RH  059%=      5-min Rain = 0
KGDS 081330Z 02003KT 03/M05 A3044 RMK A01 T00301047  RH  057%=      5-min Rain = 0
KGDS 081335Z 03002KT 03/M05 A3044 RMK A01 T00301050  RH  056%=      5-min Rain = 0
KGDS 081340Z 03003KT 03/M05 A3045 RMK A01 T00311051  RH  055%=      5-min Rain = 0
KGDS 081345Z 02003KT 03/M05 A3045 RMK A01 T00311050  RH  056%=      5-min Rain = 0
KGDS 081350Z 03003KT 03/M05 A3045 RMK A01 T00311052  RH  054%=      5-min Rain = 0
KGDS 081355Z 03003KT 03/M05 A3045 RMK A01 T00311052  RH  055%=      5-min Rain = 0
KGDS 081400Z 03003KT 03/M05 A3045 RMK A01 T00311054  RH  054%=      5-min Rain = 0
KGDS 081405Z 02003KT 03/M05 A3045 RMK A01 T00311054  RH  054%=      5-min Rain = 0
KGDS 081410Z 03002KT 03/M05 A3045 RMK A01 T00321053  RH  054%=      5-min Rain = 0
KGDS 081415Z 01003KT 03/M05 A3046 RMK A01 T00321051  RH  054%=      5-min Rain = 0
KGDS 081420Z 01004KT 03/M05 A3046 RMK A01 T00321053  RH  054%=      5-min Rain = 0
KGDS 081425Z 02004KT 03/M05 A3046 RMK A01 T00331052  RH  054%=      5-min Rain = 0
KGDS 081430Z 02004KT 03/M05 A3046 RMK A01 T00331052  RH  054%=      5-min Rain = 0
KGDS 081435Z 02004KT 03/M05 A3046 RMK A01 T00331050  RH  055%=      5-min Rain = 0
KGDS 081440Z 03003KT 03/M05 A3046 RMK A01 T00331052  RH  054%=      5-min Rain = 0
KGDS 081445Z 01004KT 03/M05 A3047 RMK A01 T00341053  RH  053%=      5-min Rain = 0
KGDS 081450Z 02003KT 03/M06 A3047 RMK A01 T00341056  RH  052%=      5-min Rain = 0
KGDS 081455Z 02003KT 03/M05 A3047 RMK A01 T00341052  RH  053%=      5-min Rain = 0
KGDS 081500Z 05002KT 04/M05 A3047 RMK A01 T00351053  RH  053%=      5-min Rain = 0
KGDS 081505Z 04001KT 04/M06 A3047 RMK A01 T00351055  RH  052%=      5-min Rain = 0
KGDS 081510Z 07002KT 04/M05 A3046 RMK A01 T00361054  RH  052%=      5-min Rain = 0
KGDS 081515Z 05001KT 04/M06 A3047 RMK A01 T00361058  RH  051%=      5-min Rain = 0
KGDS 081520Z 04002KT 04/M06 A3046 RMK A01 T00361056  RH  051%=      5-min Rain = 0
KGDS 081525Z 05001KT 04/M05 A3047 RMK A01 T00361053  RH  052%=      5-min Rain = 0
KGDS 081530Z 05001KT 04/M06 A3047 RMK A01 T00371056  RH  051%=      5-min Rain = 0
KGDS 081535Z 05001KT 04/M06 A3046 RMK A01 T00371058  RH  050%=      5-min Rain = 0
KGDS 081540Z 10002KT 04/M05 A3046 RMK A01 T00381052  RH  052%=      5-min Rain = 0
KGDS 081545Z 08002KT 04/M05 A3046 RMK A01 T00391053  RH  051%=      5-min Rain = 0
KGDS 081550Z 07001KT 04/M06 A3046 RMK A01 T00391055  RH  050%=      5-min Rain = 0
KGDS 081555Z 11001KT 04/M06 A3046 RMK A01 T00401057  RH  049%=      5-min Rain = 0
KGDS 081600Z 09001KT 04/M05 A3045 RMK A01 T00411052  RH  051%=      5-min Rain = 0
KGDS 081605Z 12002KT 04/M05 A3045 RMK A01 T00421047  RH  053%=      5-min Rain = 0
KGDS 081610Z 15003KT 04/M05 A3044 RMK A01 T00431054  RH  050%=      5-min Rain = 0
KGDS 081615Z 13002KT 04/M05 A3044 RMK A01 T00441049  RH  051%=      5-min Rain = 0
KGDS 081620Z 14002KT 05/M05 A3044 RMK A01 T00451052  RH  049%=      5-min Rain = 0
KGDS 081625Z 17003KT 04/M06 A3044 RMK A01 T00441059  RH  047%=      5-min Rain = 0
KGDS 081630Z 17001KT 04/M07 A3044 RMK A01 T00441071  RH  043%=      5-min Rain = 0
KGDS 081635Z 14000KT 05/M07 A3044 RMK A01 T00471070  RH  042%=      5-min Rain = 0
KGDS 081640Z 14002KT 05/M06 A3043 RMK A01 T00471064  RH  045%=      5-min Rain = 0
KGDS 081645Z 15002KT 05/M06 A3043 RMK A01 T00471064  RH  044%=      5-min Rain = 0
KGDS 081650Z 15003KT 05/M06 A3043 RMK A01 T00491060  RH  045%=      5-min Rain = 0
KGDS 081655Z 17004KT 05/M06 A3042 RMK A01 T00491062  RH  044%=      5-min Rain = 0
KGDS 081700Z 16004KT 05/M06 A3042 RMK A01 T00511057  RH  046%=      5-min Rain = 0
KGDS 081705Z 16005KT 05/M06 A3042 RMK A01 T00511063  RH  044%=      5-min Rain = 0
KGDS 081710Z 17005KT 05/M06 A3041 RMK A01 T00541057  RH  045%=      5-min Rain = 0
KGDS 081715Z 19005KT 05/M06 A3041 RMK A01 T00541059  RH  044%=      5-min Rain = 0
KGDS 081720Z 19005KT 06/M06 A3041 RMK A01 T00551059  RH  044%=      5-min Rain = 0
KGDS 081725Z 18005KT 06/M06 A3041 RMK A01 T00571057  RH  044%=      5-min Rain = 0
KGDS 081730Z 19003KT 06/M06 A3041 RMK A01 T00571057  RH  044%=      5-min Rain = 0
KGDS 081735Z 21003KT 06/M06 A3041 RMK A01 T00581056  RH  044%=      5-min Rain = 0
KGDS 081740Z 20004KT 06/M05 A3041 RMK A01 T00581054  RH  045%=      5-min Rain = 0
KGDS 081745Z 21003KT 06/M05 A3041 RMK A01 T00591052  RH  045%=      5-min Rain = 0
KGDS 081750Z 21002KT 06/M06 A3041 RMK A01 T00581057  RH  043%=      5-min Rain = 0
KGDS 081755Z 20002KT 06/M05 A3041 RMK A01 T00601051  RH  045%=      5-min Rain = 0
KGDS 081800Z 19001KT 06/M05 A304 RMK A01 T00621051  RH  044%=      5-min Rain = 0
KGDS 081805Z 24002KT 06/M05 A304 RMK A01 T00631045  RH  046%=      5-min Rain = 0
KGDS 081810Z 23002KT 06/M05 A304 RMK A01 T00621047  RH  046%=      5-min Rain = 0
KGDS 081815Z 25002KT 06/M05 A3039 RMK A01 T00641045  RH  046%=      5-min Rain = 0
KGDS 081820Z 24002KT 06/M05 A3039 RMK A01 T00641046  RH  046%=      5-min Rain = 0
KGDS 081825Z 22002KT 06/M05 A3038 RMK A01 T00631050  RH  044%=      5-min Rain = 0
KGDS 081830Z 23003KT 07/M04 A3038 RMK A01 T00661041  RH  046%=      5-min Rain = 0
KGDS 081835Z 21003KT 07/M04 A3038 RMK A01 T00661041  RH  046%=      5-min Rain = 0
KGDS 081840Z 24001KT 07/M04 A3038 RMK A01 T00681041  RH  046%=      5-min Rain = 0
KGDS 081845Z 27003KT 07/M04 A3038 RMK A01 T00681038  RH  047%=      5-min Rain = 0
KGDS 081850Z 25003KT 07/M04 A3038 RMK A01 T00661040  RH  047%=      5-min Rain = 0
KGDS 081855Z 26002KT 07/M04 A3037 RMK A01 T00671040  RH  047%=      5-min Rain = 0
KGDS 081900Z 24002KT 07/M04 A3037 RMK A01 T00681041  RH  046%=      5-min Rain = 0
KGDS 081905Z 19001KT 07/M04 A3037 RMK A01 T00691039  RH  046%=      5-min Rain = 0
KGDS 081910Z 22003KT 07/M04 A3037 RMK A01 T00701036  RH  047%=      5-min Rain = 0
KGDS 081915Z 23004KT 07/M04 A3036 RMK A01 T00691038  RH  047%=      5-min Rain = 0
KGDS 081920Z 24002KT 07/M04 A3036 RMK A01 T00691040  RH  046%=      5-min Rain = 0
KGDS 081925Z 20003KT 07/M04 A3035 RMK A01 T00711036  RH  047%=      5-min Rain = 0
KGDS 081930Z 20005KT 07/M03 A3035 RMK A01 T00731032  RH  047%=      5-min Rain = 0
KGDS 081935Z 21004KT 07/M03 A3035 RMK A01 T00741034  RH  047%=      5-min Rain = 0
KGDS 081940Z 21003KT 08/M03 A3035 RMK A01 T00751030  RH  048%=      5-min Rain = 0
KGDS 081945Z 21004KT 08/M03 A3035 RMK A01 T00761025  RH  049%=      5-min Rain = 0
KGDS 081950Z 21004KT 08/M03 A3034 RMK A01 T00751030  RH  048%=      5-min Rain = 0
KGDS 081955Z 16002KT 08/M03 A3034 RMK A01 T00771029  RH  047%=      5-min Rain = 0
KGDS 082000Z 19005KT 08/M02 A3033 RMK A01 T00781023  RH  049%=      5-min Rain = 0
KGDS 082005Z 18004KT 08/M02 A3033 RMK A01 T00791021  RH  050%=      5-min Rain = 0
KGDS 082010Z 20002KT 08/M02 A3033 RMK A01 T00801024  RH  048%=      5-min Rain = 0
KGDS 082015Z 20004KT 08/M02 A3033 RMK A01 T00801020  RH  050%=      5-min Rain = 0
KGDS 082020Z 15002KT 08/M02 A3033 RMK A01 T00801023  RH  049%=      5-min Rain = 0
KGDS 082025Z 19003KT 08/M02 A3033 RMK A01 T00811019  RH  050%=      5-min Rain = 0
KGDS 082030Z 18004KT 08/M02 A3032 RMK A01 T00811018  RH  050%=      5-min Rain = 0
KGDS 082035Z 17003KT 08/M02 A3032 RMK A01 T00821020  RH  049%=      5-min Rain = 0
KGDS 082040Z 16001KT 08/M02 A3032 RMK A01 T00831021  RH  048%=      5-min Rain = 0
KGDS 082045Z 19003KT 09/M02 A3032 RMK A01 T00851016  RH  049%=      5-min Rain = 0
KGDS 082050Z 18002KT 09/M02 A3032 RMK A01 T00851020  RH  048%=      5-min Rain = 0
KGDS 082055Z 18003KT 09/M01 A3031 RMK A01 T00891012  RH  050%=      5-min Rain = 0
KGDS 082100Z 19004KT 09/M01 A3031 RMK A01 T00891014  RH  049%=      5-min Rain = 0
KGDS 082105Z 17004KT 09/M01 A3031 RMK A01 T00911013  RH  049%=      5-min Rain = 0
KGDS 082110Z 18004KT 09/M01 A3031 RMK A01 T00901014  RH  049%=      5-min Rain = 0
KGDS 082115Z 18006KT 09/M01 A303 RMK A01 T00931008  RH  050%=      5-min Rain = 0
KGDS 082120Z 19004KT 09/M01 A303 RMK A01 T00931010  RH  049%=      5-min Rain = 0
KGDS 082125Z 18007KT 09/M01 A303 RMK A01 T00941007  RH  050%=      5-min Rain = 0
KGDS 082130Z 18006KT 09/M01 A303 RMK A01 T00941007  RH  050%=      5-min Rain = 0
KGDS 082135Z 18006KT 10/M01 A303 RMK A01 T00951006  RH  050%=      5-min Rain = 0
KGDS 082140Z 17005G10KT 10/M01 A303 RMK A01 T00961005  RH  050%=      5-min Rain = 0
KGDS 082145Z 19007KT 10/M01 A3029 RMK A01 T00961005  RH  050%=      5-min Rain = 0
KGDS 082150Z 20005KT 10/M01 A3029 RMK A01 T00971006  RH  049%=      5-min Rain = 0
KGDS 082155Z 18004KT 10/M01 A3029 RMK A01 T01001006  RH  048%=      5-min Rain = 0
KGDS 082200Z 19006KT 10/M00 A3029 RMK A01 T01011004  RH  048%=      5-min Rain = 0
KGDS 082205Z 18005KT 10/00 A3029 RMK A01 T010400-0  RH  049%=      5-min Rain = 0
KGDS 082210Z 19005KT 10/M01 A3029 RMK A01 T00971006  RH  049%=      5-min Rain = 0
KGDS 082215Z 18005KT 10/00 A3029 RMK A01 T00950002  RH  053%=      5-min Rain = 0
KGDS 082220Z 17005KT 10/00 A3028 RMK A01 T00960001  RH  052%=      5-min Rain = 0
KGDS 082225Z 18005KT 10/00 A3028 RMK A01 T00970000  RH  051%=      5-min Rain = 0
KGDS 082230Z 18005KT 10/00 A3028 RMK A01 T00980003  RH  052%=      5-min Rain = 0
KGDS 082235Z 16006KT 10/00 A3028 RMK A01 T00980003  RH  052%=      5-min Rain = 0
KGDS 082240Z 17006KT 10/00 A3028 RMK A01 T01010004  RH  052%=      5-min Rain = 0
KGDS 082245Z 17007KT 10/00 A3028 RMK A01 T01030002  RH  050%=      5-min Rain = 0
KGDS 082250Z 17005KT 10/00 A3028 RMK A01 T00990003  RH  052%=      5-min Rain = 0
KGDS 082255Z 18007KT 10/01 A3028 RMK A01 T00960007  RH  054%=      5-min Rain = 0
KGDS 082300Z 17006KT 10/01 A3028 RMK A01 T00950008  RH  055%=      5-min Rain = 0
KGDS 082305Z 17006KT 10/01 A3028 RMK A01 T00960010  RH  056%=      5-min Rain = 0
KGDS 082310Z 17005KT 10/01 A3028 RMK A01 T00960013  RH  057%=      5-min Rain = 0
KGDS 082315Z 16004KT 10/01 A3028 RMK A01 T00960012  RH  056%=      5-min Rain = 0
KGDS 082320Z 16004KT 10/01 A3028 RMK A01 T00970013  RH  057%=      5-min Rain = 0
KGDS 082325Z 16003KT 10/01 A3028 RMK A01 T00990014  RH  056%=      5-min Rain = 0
KGDS 082330Z 17004KT 10/01 A3028 RMK A01 T00980013  RH  056%=      5-min Rain = 0
KGDS 082335Z 16004KT 10/02 A3028 RMK A01 T00950015  RH  058%=      5-min Rain = 0
KGDS 082340Z 16005KT 09/01 A3028 RMK A01 T00910014  RH  060%=      5-min Rain = 0
KGDS 082345Z 16005KT 09/02 A3028 RMK A01 T00860015  RH  062%=      5-min Rain = 0
KGDS 082350Z 16005KT 08/02 A3028 RMK A01 T00830015  RH  063%=      5-min Rain = 0
KGDS 082355Z 15005KT 08/02 A3028 RMK A01 T00800017  RH  066%=      5-min Rain = 0
KGDS 090000Z 14005KT 08/02 A3027 RMK A01 T00770019  RH  068%=      5-min Rain = 0
KGDS 090005Z 14006KT 07/02 A3027 RMK A01 T00730018  RH  069%=      5-min Rain = 0
KGDS 090010Z 14006KT 07/02 A3027 RMK A01 T00710017  RH  070%=      5-min Rain = 0
KGDS 090015Z 15006KT 07/02 A3028 RMK A01 T00690017  RH  070%=      5-min Rain = 0
KGDS 090020Z 15006KT 07/02 A3028 RMK A01 T00680016  RH  071%=      5-min Rain = 0
KGDS 090025Z 15006KT 07/02 A3028 RMK A01 T00650016  RH  072%=      5-min Rain = 0
KGDS 090030Z 15007KT 06/02 A3028 RMK A01 T00630016  RH  073%=      5-min Rain = 0
KGDS 090035Z 15006KT 06/02 A3028 RMK A01 T00630015  RH  073%=      5-min Rain = 0
KGDS 090040Z 15006KT 06/02 A3028 RMK A01 T00620015  RH  073%=      5-min Rain = 0
KGDS 090045Z 15006KT 06/02 A3027 RMK A01 T00600015  RH  074%=      5-min Rain = 0
KGDS 090050Z 15006KT 06/02 A3028 RMK A01 T00570015  RH  075%=      5-min Rain = 0
KGDS 090055Z 15006KT 06/02 A3028 RMK A01 T00550015  RH  076%=      5-min Rain = 0
KGDS 090100Z 15007KT 05/02 A3028 RMK A01 T00530015  RH  077%=      5-min Rain = 0
KGDS 090105Z 16007KT 05/01 A3028 RMK A01 T00530014  RH  078%=      5-min Rain = 0
KGDS 090110Z 16007KT 05/01 A3028 RMK A01 T00520013  RH  077%=      5-min Rain = 0
KGDS 090115Z 16007KT 05/01 A3028 RMK A01 T00490012  RH  078%=      5-min Rain = 0
KGDS 090120Z 17007KT 05/01 A3028 RMK A01 T00460011  RH  079%=      5-min Rain = 0
KGDS 090125Z 17007KT 05/01 A3028 RMK A01 T00450011  RH  080%=      5-min Rain = 0
KGDS 090130Z 17007KT 04/01 A3028 RMK A01 T00430010  RH  080%=      5-min Rain = 0
KGDS 090135Z 17007KT 04/01 A3028 RMK A01 T00410009  RH  081%=      5-min Rain = 0
KGDS 090140Z 17006KT 04/01 A3028 RMK A01 T00400009  RH  081%=      5-min Rain = 0
KGDS 090145Z 17007KT 04/01 A3028 RMK A01 T00390009  RH  082%=      5-min Rain = 0
KGDS 090150Z 17006KT 04/01 A3028 RMK A01 T00390008  RH  081%=      5-min Rain = 0
KGDS 090155Z 17007KT 04/01 A3028 RMK A01 T00390008  RH  081%=      5-min Rain = 0
KGDS 090200Z 17007KT 04/01 A3028 RMK A01 T00380008  RH  082%=      5-min Rain = 0
KGDS 090205Z 16007KT 04/01 A3028 RMK A01 T00380008  RH  082%=      5-min Rain = 0
KGDS 090210Z 16007KT 04/01 A3028 RMK A01 T00380007  RH  081%=      5-min Rain = 0
KGDS 090215Z 16006KT 04/01 A3028 RMK A01 T00370007  RH  082%=      5-min Rain = 0
KGDS 090220Z 16006KT 04/01 A3028 RMK A01 T00370007  RH  082%=      5-min Rain = 0
KGDS 090225Z 16006KT 04/01 A3028 RMK A01 T00370007  RH  082%=      5-min Rain = 0
KGDS 090230Z 17007KT 04/01 A3028 RMK A01 T00370008  RH  082%=      5-min Rain = 0
KGDS 090235Z 17007KT 04/01 A3028 RMK A01 T00380008  RH  082%=      5-min Rain = 0
KGDS 090240Z 17006KT 04/01 A3028 RMK A01 T00380008  RH  082%=      5-min Rain = 0
KGDS 090245Z 17006KT 04/01 A3028 RMK A01 T00360008  RH  083%=      5-min Rain = 0
KGDS 090250Z 17007KT 04/01 A3028 RMK A01 T00360008  RH  083%=      5-min Rain = 0
KGDS 090255Z 17007KT 04/01 A3028 RMK A01 T00360009  RH  083%=      5-min Rain = 0
KGDS 090300Z 17007KT 04/01 A3028 RMK A01 T00360009  RH  084%=      5-min Rain = 0
KGDS 090305Z 17007KT 04/01 A3028 RMK A01 T00350008  RH  084%=      5-min Rain = 0
KGDS 090310Z 17007KT 03/01 A3028 RMK A01 T00330008  RH  084%=      5-min Rain = 0
KGDS 090315Z 18006KT 03/01 A3028 RMK A01 T00330007  RH  085%=      5-min Rain = 0
KGDS 090320Z 18006KT 03/01 A3028 RMK A01 T00320007  RH  085%=      5-min Rain = 0
KGDS 090325Z 18005KT 03/01 A3028 RMK A01 T00330007  RH  084%=      5-min Rain = 0
KGDS 090330Z 18005KT 03/01 A3028 RMK A01 T00330007  RH  084%=      5-min Rain = 0
KGDS 090335Z 19005KT 03/01 A3028 RMK A01 T00310006  RH  085%=      5-min Rain = 0
KGDS 090340Z 19005KT 03/01 A3029 RMK A01 T00290006  RH  086%=      5-min Rain = 0
KGDS 090345Z 19005KT 03/01 A3029 RMK A01 T00280006  RH  087%=      5-min Rain = 0
KGDS 090350Z 19007KT 03/01 A3029 RMK A01 T00300008  RH  087%=      5-min Rain = 0
KGDS 090355Z 19006KT 03/01 A3029 RMK A01 T00310007  RH  086%=      5-min Rain = 0
KGDS 090400Z 20004KT 03/01 A3029 RMK A01 T00280005  RH  086%=      5-min Rain = 0
KGDS 090405Z 21004KT 03/01 A3029 RMK A01 T00260006  RH  088%=      5-min Rain = 0
KGDS 090410Z 20005KT 03/01 A3029 RMK A01 T00260007  RH  088%=      5-min Rain = 0
KGDS 090415Z 20005KT 03/01 A3029 RMK A01 T00280008  RH  088%=      5-min Rain = 0
KGDS 090420Z 20005KT 03/01 A3029 RMK A01 T00300008  RH  087%=      5-min Rain = 0
KGDS 090425Z 20005KT 03/01 A3028 RMK A01 T00290008  RH  087%=      5-min Rain = 0
KGDS 090430Z 20006KT 03/01 A3028 RMK A01 T00290008  RH  087%=      5-min Rain = 0
KGDS 090435Z 20006KT 03/01 A3028 RMK A01 T00280007  RH  087%=      5-min Rain = 0
KGDS 090440Z 21005KT 02/01 A3029 RMK A01 T00240005  RH  088%=      5-min Rain = 0
KGDS 090445Z 20005KT 02/01 A3029 RMK A01 T00230006  RH  090%=      5-min Rain = 0
KGDS 090450Z 21006KT 02/01 A3028 RMK A01 T00230006  RH  090%=      5-min Rain = 0
KGDS 090455Z 21006KT 02/01 A3028 RMK A01 T00220006  RH  090%=      5-min Rain = 0
KGDS 090500Z 21007KT 02/01 A3028 RMK A01 T00210006  RH  091%=      5-min Rain = 0
KGDS 090505Z 21007KT 02/01 A3028 RMK A01 T00210006  RH  091%=      5-min Rain = 0
KGDS 090510Z 21006KT 02/01 A3028 RMK A01 T00210005  RH  091%=      5-min Rain = 0
KGDS 090515Z 21006KT 02/01 A3028 RMK A01 T00200005  RH  091%=      5-min Rain = 0
KGDS 090520Z 22006KT 02/01 A3027 RMK A01 T00200005  RH  091%=      5-min Rain = 0
KGDS 090525Z 22006KT 02/01 A3027 RMK A01 T00200006  RH  091%=      5-min Rain = 0
KGDS 090530Z 22006KT 02/01 A3027 RMK A01 T00200006  RH  091%=      5-min Rain = 0
KGDS 090535Z 22006KT 02/01 A3027 RMK A01 T00200005  RH  091%=      5-min Rain = 0
KGDS 090540Z 22007KT 02/01 A3027 RMK A01 T00200005  RH  091%=      5-min Rain = 0
KGDS 090545Z 22007KT 02/01 A3027 RMK A01 T00200006  RH  091%=      5-min Rain = 0
KGDS 090550Z 22007KT 02/01 A3026 RMK A01 T00200006  RH  091%=      5-min Rain = 0
KGDS 090555Z 22007KT 02/01 A3026 RMK A01 T00200006  RH  091%=      5-min Rain = 0

Page generated in 0.0188 seconds.